createdAt,value
2018-07-24T00:02:21.321Z,17.90
2018-07-24T00:04:50.058Z,17.80
2018-07-24T00:07:18.871Z,17.80
2018-07-24T00:09:47.823Z,17.80
2018-07-24T00:12:16.729Z,17.80
2018-07-24T00:14:45.500Z,17.80
2018-07-24T00:17:14.343Z,17.80
2018-07-24T00:19:43.234Z,17.80
2018-07-24T00:22:12.032Z,17.70
2018-07-24T00:24:40.911Z,17.80
2018-07-24T00:27:09.775Z,17.70
2018-07-24T00:29:38.568Z,17.70
2018-07-24T00:32:07.370Z,17.60
2018-07-24T00:34:36.827Z,17.60
2018-07-24T00:37:05.749Z,17.60
2018-07-24T00:39:34.603Z,17.60
2018-07-24T00:42:03.386Z,17.60
2018-07-24T00:44:32.274Z,17.50
2018-07-24T00:47:02.063Z,17.50
2018-07-24T00:49:30.847Z,17.50
2018-07-24T00:51:59.719Z,17.40
2018-07-24T00:54:28.567Z,17.50
2018-07-24T00:59:25.814Z,17.40
2018-07-24T01:01:54.615Z,17.40
2018-07-24T01:04:23.404Z,17.40
2018-07-24T01:06:52.238Z,17.40
2018-07-24T01:09:21.278Z,17.30
2018-07-24T01:11:50.076Z,17.30
2018-07-24T01:14:20.018Z,17.30
2018-07-24T01:16:48.805Z,17.20
2018-07-24T01:21:46.039Z,17.20
2018-07-24T01:24:14.809Z,17.20
2018-07-24T01:26:52.639Z,17.20
2018-07-24T01:29:30.488Z,17.20
2018-07-24T01:31:59.345Z,17.20
2018-07-24T01:34:28.115Z,17.10
2018-07-24T01:36:56.923Z,17.10
2018-07-24T01:39:25.703Z,17.10
2018-07-24T01:41:54.499Z,17.10
2018-07-24T01:44:23.283Z,17.10
2018-07-24T01:46:52.074Z,17.10
2018-07-24T01:49:20.864Z,17.10
2018-07-24T01:51:49.665Z,17.00
2018-07-24T01:54:18.707Z,17.00
2018-07-24T01:56:47.518Z,17.00
2018-07-24T01:59:16.333Z,17.00
2018-07-24T02:01:45.132Z,16.90
2018-07-24T02:04:13.924Z,16.90
2018-07-24T02:06:42.739Z,16.90
2018-07-24T02:09:12.007Z,16.90
2018-07-24T02:11:40.939Z,16.90
2018-07-24T02:14:09.866Z,16.90
2018-07-24T02:16:38.664Z,16.80
2018-07-24T02:19:07.467Z,16.80
2018-07-24T02:21:36.255Z,16.80
2018-07-24T02:24:05.213Z,16.80
2018-07-24T02:26:34.044Z,16.80
2018-07-24T02:29:02.833Z,16.70
2018-07-24T02:31:31.963Z,16.70
2018-07-24T02:34:00.771Z,16.70
2018-07-24T02:36:29.567Z,16.60
2018-07-24T02:38:58.407Z,16.60
2018-07-24T02:41:27.189Z,16.70
2018-07-24T02:43:56.012Z,16.60
2018-07-24T02:46:24.801Z,16.60
2018-07-24T02:48:53.605Z,16.60
2018-07-24T02:51:22.379Z,16.60
2018-07-24T02:53:51.162Z,16.60
2018-07-24T02:56:19.946Z,16.50
2018-07-24T02:58:48.732Z,16.60
2018-07-24T03:01:17.831Z,16.60
2018-07-24T03:03:46.644Z,16.50
2018-07-24T03:06:15.424Z,16.60
2018-07-24T03:08:44.227Z,16.60
2018-07-24T03:13:41.475Z,16.50
2018-07-24T03:16:10.301Z,16.40
2018-07-24T03:18:39.055Z,16.40
2018-07-24T03:21:07.836Z,16.50
2018-07-24T03:23:36.643Z,16.40
2018-07-24T03:26:05.816Z,16.40
2018-07-24T03:28:34.623Z,16.40
2018-07-24T03:31:03.398Z,16.40
2018-07-24T03:33:32.351Z,16.30
2018-07-24T03:36:01.148Z,16.30
2018-07-24T03:38:29.959Z,16.30
2018-07-24T03:40:58.781Z,16.30
2018-07-24T03:43:27.635Z,16.30
2018-07-24T03:45:56.451Z,16.30
2018-07-24T03:48:25.322Z,16.20
2018-07-24T03:50:55.183Z,16.20
2018-07-24T03:53:24.012Z,16.20
2018-07-24T03:55:52.808Z,16.20
2018-07-24T03:58:21.611Z,16.10
2018-07-24T04:00:50.387Z,16.10
2018-07-24T04:03:19.269Z,16.10
2018-07-24T04:05:48.028Z,16.10
2018-07-24T04:08:16.814Z,16.10
2018-07-24T04:10:45.587Z,16.10
2018-07-24T04:13:14.397Z,16.20
2018-07-24T04:15:43.200Z,16.20
2018-07-24T04:18:12.027Z,16.20
2018-07-24T04:20:40.817Z,16.10
2018-07-24T04:25:40.196Z,16.20
2018-07-24T04:28:08.994Z,16.20
2018-07-24T04:30:37.790Z,16.20
2018-07-24T04:33:06.575Z,16.30
2018-07-24T04:35:35.371Z,16.30
2018-07-24T04:38:04.159Z,16.20
2018-07-24T04:40:32.938Z,16.20
2018-07-24T04:43:01.739Z,16.20
2018-07-24T04:45:30.532Z,16.20
2018-07-24T04:47:59.355Z,16.20
2018-07-24T04:50:28.126Z,16.20
2018-07-24T04:52:58.308Z,16.30
2018-07-24T04:55:27.321Z,16.30
2018-07-24T04:57:56.129Z,16.40
2018-07-24T05:00:25.956Z,16.40
2018-07-24T05:02:54.763Z,16.50
2018-07-24T05:05:23.579Z,16.50
2018-07-24T05:07:52.563Z,16.50
2018-07-24T05:10:21.370Z,16.50
2018-07-24T05:12:50.149Z,16.60
2018-07-24T05:15:19.005Z,16.70
2018-07-24T05:17:47.838Z,16.70
2018-07-24T05:20:20.375Z,16.80
2018-07-24T05:22:49.187Z,16.80
2018-07-24T05:25:18.084Z,16.90
2018-07-24T05:27:46.962Z,16.90
2018-07-24T05:30:15.825Z,16.90
2018-07-24T05:32:44.987Z,17.00
2018-07-24T05:35:13.806Z,17.10
2018-07-24T05:37:42.881Z,17.10
2018-07-24T05:40:11.735Z,17.20
2018-07-24T05:42:40.523Z,17.30
2018-07-24T05:45:09.358Z,17.30
2018-07-24T05:47:38.147Z,17.40
2018-07-24T05:50:07.287Z,17.50
2018-07-24T05:52:36.096Z,17.50
2018-07-24T05:55:04.957Z,17.60
2018-07-24T05:57:33.715Z,17.70
2018-07-24T06:00:02.553Z,17.80
2018-07-24T06:02:31.347Z,17.80
2018-07-24T06:07:28.769Z,18.00
2018-07-24T06:09:57.507Z,18.10
2018-07-24T06:12:26.307Z,18.20
2018-07-24T06:14:55.125Z,18.30
2018-07-24T06:17:23.981Z,18.30
2018-07-24T06:19:52.746Z,18.40
2018-07-24T06:22:21.551Z,18.50
2018-07-24T06:24:50.372Z,18.60
2018-07-24T06:27:19.183Z,18.70
2018-07-24T06:29:48.046Z,18.80
2018-07-24T06:32:16.886Z,18.80
2018-07-24T06:34:45.947Z,18.90
2018-07-24T06:37:14.740Z,19.00
2018-07-24T06:39:43.679Z,19.00
2018-07-24T06:42:12.457Z,19.10
2018-07-24T06:44:41.310Z,19.20
2018-07-24T06:47:10.271Z,19.30
2018-07-24T06:49:39.064Z,19.40
2018-07-24T06:52:07.875Z,19.50
2018-07-24T06:54:36.756Z,19.60
2018-07-24T06:57:05.679Z,19.70
2018-07-24T06:59:34.495Z,19.80
2018-07-24T07:04:31.825Z,20.00
2018-07-24T07:07:00.617Z,20.00
2018-07-24T07:09:29.668Z,20.10
2018-07-24T07:11:58.483Z,20.10
2018-07-24T07:14:27.280Z,20.20
2018-07-24T07:16:56.081Z,20.30
2018-07-24T07:19:24.883Z,20.30
2018-07-24T07:21:53.708Z,20.40
2018-07-24T07:24:22.564Z,20.50
2018-07-24T07:26:51.376Z,20.50
2018-07-24T07:29:20.147Z,20.60
2018-07-24T07:31:48.944Z,20.60
2018-07-24T07:34:17.714Z,20.60
2018-07-24T07:36:46.507Z,20.60
2018-07-24T07:39:15.321Z,20.70
2018-07-24T07:41:44.091Z,20.80
2018-07-24T07:44:12.883Z,20.90
2018-07-24T07:46:41.715Z,20.90
2018-07-24T07:49:10.514Z,21.00
2018-07-24T07:51:39.333Z,21.10
2018-07-24T07:54:08.129Z,21.20
2018-07-24T07:56:36.931Z,21.30
2018-07-24T07:59:05.713Z,21.40
2018-07-24T08:01:34.531Z,21.60
2018-07-24T08:04:03.339Z,21.70
2018-07-24T08:06:32.135Z,21.80
2018-07-24T08:09:00.907Z,21.80
2018-07-24T08:11:29.708Z,21.80
2018-07-24T08:13:58.537Z,21.90
2018-07-24T08:16:27.320Z,22.00
2018-07-24T08:18:56.124Z,22.30
2018-07-24T08:21:24.939Z,22.40
2018-07-24T08:23:53.732Z,22.50
2018-07-24T08:26:22.519Z,22.70
2018-07-24T08:28:51.319Z,22.80
2018-07-24T08:31:20.252Z,22.80
2018-07-24T08:33:49.102Z,22.90
2018-07-24T08:36:18.157Z,22.90
2018-07-24T08:38:46.935Z,23.10
2018-07-24T08:41:15.707Z,23.10
2018-07-24T08:43:44.511Z,23.20
2018-07-24T08:46:13.328Z,23.30
2018-07-24T08:48:42.104Z,23.50
2018-07-24T08:51:24.487Z,23.60
2018-07-24T08:53:54.026Z,23.60
2018-07-24T08:56:22.439Z,23.70
2018-07-24T08:58:51.251Z,23.90
2018-07-24T09:01:20.043Z,24.00
2018-07-24T09:03:48.892Z,24.20
2018-07-24T09:06:17.644Z,24.20
2018-07-24T09:08:46.452Z,24.30
2018-07-24T09:11:15.251Z,24.40
2018-07-24T09:13:44.060Z,24.60
2018-07-24T09:16:12.867Z,24.70
2018-07-24T09:18:41.663Z,24.80
2018-07-24T09:21:10.446Z,24.90
2018-07-24T09:23:45.615Z,25.00
2018-07-24T09:26:14.439Z,25.20
2018-07-24T09:28:43.259Z,25.30
2018-07-24T09:31:12.048Z,25.60
2018-07-24T09:33:40.855Z,25.80
2018-07-24T09:36:09.928Z,25.90
2018-07-24T09:38:38.747Z,26.20
2018-07-24T09:41:07.518Z,26.40
2018-07-24T09:43:36.316Z,26.60
2018-07-24T09:46:05.284Z,26.80
2018-07-24T09:48:34.147Z,27.00
2018-07-24T09:51:03.014Z,27.40
2018-07-24T09:53:31.859Z,27.60
2018-07-24T09:56:00.672Z,27.80
2018-07-24T09:58:29.492Z,27.90
2018-07-24T10:01:03.598Z,28.20
2018-07-24T10:03:32.427Z,28.40
2018-07-24T10:06:01.229Z,28.40
2018-07-24T10:08:30.720Z,28.30
2018-07-24T10:10:59.723Z,28.40
2018-07-24T10:13:28.696Z,28.50
2018-07-24T10:18:26.018Z,28.70
2018-07-24T10:20:54.810Z,28.80
2018-07-24T10:23:23.635Z,28.80
2018-07-24T10:25:52.447Z,28.70
2018-07-24T10:28:23.372Z,28.70
2018-07-24T10:30:52.179Z,28.40
2018-07-24T10:33:21.001Z,28.70
2018-07-24T10:35:49.811Z,28.70
2018-07-24T10:38:18.640Z,28.40
2018-07-24T10:40:47.459Z,28.40
2018-07-24T10:43:16.257Z,28.40
2018-07-24T10:45:45.055Z,28.70
2018-07-24T10:48:13.897Z,28.90
2018-07-24T10:50:42.687Z,29.30
2018-07-24T10:53:11.499Z,29.50
2018-07-24T10:55:40.293Z,29.70
2018-07-24T10:58:09.111Z,29.80
2018-07-24T11:00:37.914Z,29.90
2018-07-24T11:03:06.807Z,30.20
2018-07-24T11:05:35.640Z,30.30
2018-07-24T11:08:04.452Z,30.30
2018-07-24T11:10:33.244Z,30.20
2018-07-24T11:13:02.063Z,30.10
2018-07-24T11:15:31.023Z,30.30
2018-07-24T11:18:00.011Z,30.50
2018-07-24T11:20:29.729Z,30.40
2018-07-24T11:22:58.556Z,30.40
2018-07-24T11:25:27.324Z,30.50
2018-07-24T11:27:56.129Z,30.70
2018-07-24T11:30:24.926Z,30.70
2018-07-24T11:32:53.784Z,30.50
2018-07-24T11:35:22.555Z,30.50
2018-07-24T11:37:51.383Z,30.60
2018-07-24T11:40:20.200Z,30.70
2018-07-24T11:42:48.992Z,30.80
2018-07-24T11:45:17.815Z,30.80
2018-07-24T11:47:46.613Z,30.50
2018-07-24T11:50:15.399Z,30.00
2018-07-24T11:52:44.187Z,29.90
2018-07-24T11:55:12.983Z,30.30
2018-07-24T11:57:41.792Z,30.70
2018-07-24T12:00:10.759Z,31.00
2018-07-24T12:02:39.559Z,31.10
2018-07-24T12:05:08.383Z,31.40
2018-07-24T12:07:37.163Z,31.50
2018-07-24T12:10:05.999Z,31.70
2018-07-24T12:12:34.788Z,31.90
2018-07-24T12:15:03.752Z,32.10
2018-07-24T12:17:32.504Z,32.20
2018-07-24T12:20:01.319Z,31.90
2018-07-24T12:22:30.135Z,32.00
2018-07-24T12:24:58.959Z,31.90
2018-07-24T12:27:27.795Z,31.80
2018-07-24T12:29:56.596Z,31.60
2018-07-24T12:32:25.390Z,31.80
2018-07-24T12:34:54.218Z,32.10
2018-07-24T12:37:23.031Z,32.30
2018-07-24T12:39:51.866Z,32.20
2018-07-24T12:42:20.723Z,32.30
2018-07-24T12:44:49.552Z,32.60
2018-07-24T12:47:18.355Z,32.60
2018-07-24T12:49:47.143Z,32.50
2018-07-24T12:52:16.035Z,32.40
2018-07-24T12:54:44.835Z,32.50
2018-07-24T12:57:13.647Z,32.70
2018-07-24T12:59:49.951Z,32.70
2018-07-24T13:02:24.307Z,32.40
2018-07-24T13:04:53.215Z,32.50
2018-07-24T13:07:22.019Z,32.60
2018-07-24T13:09:50.839Z,32.10
2018-07-24T13:12:20.436Z,32.30
2018-07-24T13:14:49.204Z,32.20
2018-07-24T13:17:18.022Z,32.50
2018-07-24T13:19:46.851Z,32.70
2018-07-24T13:22:15.663Z,33.10
2018-07-24T13:24:44.738Z,33.20
2018-07-24T13:27:13.555Z,33.30
2018-07-24T13:29:42.343Z,33.40
2018-07-24T13:32:11.221Z,33.50
2018-07-24T13:34:39.964Z,33.50
2018-07-24T13:37:08.754Z,33.20
2018-07-24T13:39:37.524Z,33.50
2018-07-24T13:42:06.411Z,33.50
2018-07-24T13:44:35.245Z,33.70
2018-07-24T13:47:04.023Z,33.30
2018-07-24T13:49:32.843Z,33.00
2018-07-24T13:52:01.673Z,33.30
2018-07-24T13:54:30.507Z,33.50
2018-07-24T13:56:59.308Z,33.70
2018-07-24T13:59:28.207Z,33.80
2018-07-24T14:04:25.598Z,33.80
2018-07-24T14:06:54.366Z,33.80
2018-07-24T14:09:23.180Z,34.00
2018-07-24T14:11:52.006Z,33.70
2018-07-24T14:14:20.924Z,33.60
2018-07-24T14:16:49.764Z,34.00
2018-07-24T14:19:18.563Z,34.10
2018-07-24T14:21:47.440Z,34.10
2018-07-24T14:24:16.244Z,33.50
2018-07-24T14:26:45.059Z,33.00
2018-07-24T14:29:13.973Z,33.20
2018-07-24T14:31:42.803Z,33.40
2018-07-24T14:34:11.592Z,33.80
2018-07-24T14:36:40.383Z,33.80
2018-07-24T14:39:11.225Z,34.00
2018-07-24T14:41:40.165Z,34.00
2018-07-24T14:44:08.946Z,34.10
2018-07-24T14:46:38.260Z,34.10
2018-07-24T14:49:07.096Z,34.10
2018-07-24T14:51:35.909Z,33.90
2018-07-24T14:54:04.721Z,33.90
2018-07-24T14:56:33.543Z,33.30
2018-07-24T14:59:02.352Z,33.00
2018-07-24T15:01:31.176Z,33.30
2018-07-24T15:06:29.021Z,33.60
2018-07-24T15:08:57.835Z,34.00
2018-07-24T15:11:26.679Z,34.10
2018-07-24T15:13:55.490Z,34.50
2018-07-24T15:16:24.277Z,34.40
2018-07-24T15:18:53.061Z,34.10
2018-07-24T15:21:21.870Z,34.00
2018-07-24T15:23:50.659Z,33.60
2018-07-24T15:26:19.475Z,33.30
2018-07-24T15:31:17.052Z,33.20
2018-07-24T15:36:14.464Z,33.10
2018-07-24T15:38:43.270Z,32.80
2018-07-24T15:41:12.120Z,32.80
2018-07-24T15:43:40.887Z,32.70
2018-07-24T15:46:09.684Z,32.90
2018-07-24T15:48:38.497Z,32.80
2018-07-24T15:51:07.483Z,32.90
2018-07-24T15:53:36.271Z,32.90
2018-07-24T15:56:05.280Z,32.70
2018-07-24T15:58:34.031Z,32.80
2018-07-24T16:01:02.839Z,32.70
2018-07-24T16:03:31.624Z,32.70
2018-07-24T16:06:00.458Z,32.30
2018-07-24T16:08:29.251Z,32.40
2018-07-24T16:10:58.044Z,32.60
2018-07-24T16:13:26.819Z,32.90
2018-07-24T16:15:55.664Z,33.00
2018-07-24T16:18:24.446Z,32.90
2018-07-24T16:20:53.255Z,32.90
2018-07-24T16:23:22.102Z,32.80
2018-07-24T16:25:50.899Z,32.50
2018-07-24T16:28:19.711Z,32.30
2018-07-24T16:30:48.527Z,32.30
2018-07-24T16:33:17.315Z,32.30
2018-07-24T16:35:46.105Z,32.30
2018-07-24T16:38:14.940Z,32.30
2018-07-24T16:40:43.734Z,32.30
2018-07-24T16:43:12.508Z,32.40
2018-07-24T16:45:41.389Z,32.30
2018-07-24T16:48:10.240Z,32.30
2018-07-24T16:50:39.134Z,31.90
2018-07-24T16:53:07.953Z,31.70
2018-07-24T16:55:36.751Z,31.70
2018-07-24T16:58:05.556Z,31.70
2018-07-24T17:00:34.391Z,31.50
2018-07-24T17:03:03.250Z,31.30
2018-07-24T17:05:31.990Z,31.10
2018-07-24T17:08:00.791Z,31.00
2018-07-24T17:10:29.571Z,30.90
2018-07-24T17:12:58.355Z,30.80
2018-07-24T17:15:27.143Z,30.70
2018-07-24T17:17:55.959Z,30.60
2018-07-24T17:20:24.742Z,30.60
2018-07-24T17:22:53.541Z,30.70
2018-07-24T17:25:22.414Z,30.50
2018-07-24T17:27:51.250Z,30.30
2018-07-24T17:30:20.011Z,30.30
2018-07-24T17:32:48.799Z,30.40
2018-07-24T17:35:17.581Z,30.30
2018-07-24T17:37:46.355Z,30.20
2018-07-24T17:40:15.152Z,30.20
2018-07-24T17:42:43.967Z,29.90
2018-07-24T17:45:12.901Z,30.00
2018-07-24T17:47:41.711Z,29.80
2018-07-24T17:50:10.523Z,29.70
2018-07-24T17:52:39.323Z,29.40
2018-07-24T17:55:08.926Z,29.30
2018-07-24T17:57:37.739Z,29.10
2018-07-24T18:00:06.752Z,29.00
2018-07-24T18:02:35.603Z,29.00
2018-07-24T18:05:04.554Z,28.90
2018-07-24T18:07:33.404Z,28.70
2018-07-24T18:10:02.229Z,28.60
2018-07-24T18:12:31.011Z,28.40
2018-07-24T18:14:59.883Z,28.20
2018-07-24T18:17:28.595Z,28.00
2018-07-24T18:19:57.383Z,27.90
2018-07-24T18:22:26.282Z,28.00
2018-07-24T18:24:55.054Z,28.00
2018-07-24T18:27:23.859Z,28.00
2018-07-24T18:29:52.668Z,28.00
2018-07-24T18:32:21.449Z,27.90
2018-07-24T18:34:50.243Z,27.90
2018-07-24T18:37:19.071Z,27.70
2018-07-24T18:39:47.940Z,27.60
2018-07-24T18:42:16.754Z,27.50
2018-07-24T18:44:45.667Z,27.30
2018-07-24T18:47:14.478Z,27.20
2018-07-24T18:49:43.260Z,27.10
2018-07-24T18:52:12.056Z,27.00
2018-07-24T18:54:40.928Z,26.80
2018-07-24T18:57:09.923Z,26.70
2018-07-24T18:59:38.708Z,26.60
2018-07-24T19:02:07.567Z,26.30
2018-07-24T19:04:36.384Z,26.20
2018-07-24T19:07:05.219Z,26.10
2018-07-24T19:09:33.991Z,26.10
2018-07-24T19:12:02.856Z,25.90
2018-07-24T19:14:31.663Z,25.90
2018-07-24T19:17:00.455Z,25.80
2018-07-24T19:19:29.279Z,25.70
2018-07-24T19:21:58.174Z,25.60
2018-07-24T19:24:27.289Z,25.40
2018-07-24T19:26:56.108Z,25.20
2018-07-24T19:31:53.386Z,25.00
2018-07-24T19:34:22.199Z,25.00
2018-07-24T19:36:51.072Z,24.90
2018-07-24T19:39:19.980Z,24.80
2018-07-24T19:41:48.783Z,24.60
2018-07-24T19:44:17.814Z,24.40
2018-07-24T19:46:46.647Z,24.40
2018-07-24T19:49:15.463Z,24.30
2018-07-24T19:51:44.267Z,24.20
2018-07-24T19:54:13.082Z,24.10
2018-07-24T19:56:41.884Z,23.90
2018-07-24T19:59:10.699Z,23.90
2018-07-24T20:01:39.570Z,23.80
2018-07-24T20:04:08.382Z,23.60
2018-07-24T20:06:37.239Z,23.60
2018-07-24T20:09:08.603Z,23.50
2018-07-24T20:11:37.415Z,23.40
2018-07-24T20:14:06.475Z,23.40
2018-07-24T20:16:35.407Z,23.40
2018-07-24T20:19:04.112Z,23.30
2018-07-24T20:21:32.937Z,23.20
2018-07-24T20:24:01.773Z,23.30
2018-07-24T20:26:30.637Z,23.20
2018-07-24T20:28:59.435Z,23.10
2018-07-24T20:31:28.405Z,23.20
2018-07-24T20:33:57.201Z,23.10
2018-07-24T20:36:26.037Z,23.10
2018-07-24T20:38:54.844Z,23.00
2018-07-24T20:41:23.784Z,23.00
2018-07-24T20:43:52.588Z,22.90
2018-07-24T20:46:21.423Z,22.90
2018-07-24T20:48:50.248Z,22.80
2018-07-24T20:51:19.148Z,22.80
2018-07-24T20:53:48.047Z,22.80
2018-07-24T20:56:16.983Z,22.80
2018-07-24T20:58:45.825Z,22.80
2018-07-24T21:01:14.638Z,22.70
2018-07-24T21:03:43.446Z,22.70
2018-07-24T21:06:12.267Z,22.80
2018-07-24T21:08:41.085Z,22.80
2018-07-24T21:11:09.903Z,22.70
2018-07-24T21:13:38.717Z,22.70
2018-07-24T21:16:07.523Z,22.70
2018-07-24T21:18:36.326Z,22.60
2018-07-24T21:21:05.140Z,22.60
2018-07-24T21:23:33.956Z,22.60
2018-07-24T21:26:02.791Z,22.60
2018-07-24T21:28:31.603Z,22.50
2018-07-24T21:31:00.399Z,22.50
2018-07-24T21:33:29.248Z,22.50
2018-07-24T21:35:58.056Z,22.50
2018-07-24T21:38:27.977Z,22.40
2018-07-24T21:40:56.795Z,22.40
2018-07-24T21:43:25.692Z,22.40
2018-07-24T21:45:54.475Z,22.40
2018-07-24T21:48:23.303Z,22.30
2018-07-24T21:50:52.094Z,22.30
2018-07-24T21:53:20.907Z,22.30
2018-07-24T21:55:49.767Z,22.10
2018-07-24T21:58:18.655Z,22.10
2018-07-24T22:00:52.023Z,22.10
2018-07-24T22:03:20.786Z,22.00
2018-07-24T22:05:49.626Z,21.90
2018-07-24T22:08:18.514Z,21.90
2018-07-24T22:10:47.275Z,21.90
2018-07-24T22:13:16.084Z,21.80
2018-07-24T22:15:44.888Z,21.80
2018-07-24T22:18:13.674Z,21.70
2018-07-24T22:20:42.514Z,21.70
2018-07-24T22:23:11.288Z,21.70
2018-07-24T22:25:40.089Z,21.70
2018-07-24T22:28:08.887Z,21.70
2018-07-24T22:30:37.908Z,21.70
2018-07-24T22:33:06.704Z,21.70
2018-07-24T22:35:35.619Z,21.60
2018-07-24T22:38:04.428Z,21.60
2018-07-24T22:40:33.260Z,21.50
2018-07-24T22:43:02.041Z,21.50
2018-07-24T22:45:30.899Z,21.40
2018-07-24T22:47:59.699Z,21.40
2018-07-24T22:50:28.623Z,21.30
2018-07-24T22:52:57.365Z,21.40
2018-07-24T22:55:26.207Z,21.30
2018-07-24T22:57:55.031Z,21.20
2018-07-24T23:00:23.818Z,21.20
2018-07-24T23:02:52.625Z,21.10
2018-07-24T23:05:21.465Z,21.10
2018-07-24T23:07:50.256Z,21.10
2018-07-24T23:10:19.059Z,21.10
2018-07-24T23:12:47.863Z,21.00
2018-07-24T23:15:16.679Z,21.00
2018-07-24T23:17:45.469Z,21.00
2018-07-24T23:20:14.260Z,20.90
2018-07-24T23:22:43.039Z,20.90
2018-07-24T23:25:11.858Z,20.90
2018-07-24T23:27:40.696Z,20.80
2018-07-24T23:30:09.551Z,20.80
2018-07-24T23:32:38.343Z,20.80
2018-07-24T23:35:07.513Z,20.70
2018-07-24T23:37:36.278Z,20.70
2018-07-24T23:40:05.067Z,20.60
2018-07-24T23:42:33.892Z,20.60
2018-07-24T23:45:02.707Z,20.60
2018-07-24T23:47:31.487Z,20.60
2018-07-24T23:50:00.334Z,20.50
2018-07-24T23:52:29.107Z,20.40
2018-07-24T23:54:57.895Z,20.40
2018-07-24T23:57:26.724Z,20.20
2018-07-24T23:59:55.487Z,20.20
